Pays
Station

 

Conditions  météo  pour  Crotone  -  Italie    Italie

  
24 °C
    
 
 

METAR pour Crotone :

LIBC 161750Z 04006KT CAVOK 24/18 Q1013

 

Voici le bulletin pour Crotone - Italie.
 
Le bulletin a été fait il y a 2 heures et 15 minutes, à 17:50 UTC .
Le vent soufflait à la vitesse de 3.1 mètres par seconde de Nord-est (040°).
 
La température était de 24 °C, avec un point de rosée à 18 °C.
La température ressentie était de 25 °C.
 
La pression atmosphérique était de 1013 hPa.
L'humidité relative était de 69.2%.
 
Il y avait pas de nuages en-dessous de 1500 mètres et pas de cumulonimbus.
 
La visibilité globale était de supérieure à 10 kilomètres.
 

 
 
 

Pays :   A   B   C   D   E   F   G   H   I   J   K   L   M   N   O   P   Q   R   S   T   U   V   W   Y   Z

 

Partenaires :  Info Météo avec Met'info
Météo Marine avec MeteoMarine.net
Infos Site  |  Infos Légales  |  Crédits  |  Confidentialité
Contactez-nous  |  Ajouter aux favoris
© 2013-2018 METAR - Tous droits réservés